Time;durP1;ratioP1;P1;durP2;ratioP2;P2;SDS_P1;SDS_P2;PMS_P1;PMS_P2;Temp;Humidity;BMP_temperature;BMP_pressure;BME280_temperature;BME280_humidity;BME280_pressure;Samples;Min_cycle;Max_cycle;Signal;HPM_P1;HPM_P2
2023/04/23 00:01:01;;;;;;;0.00;0.00;;;;;;;9.30;100.00;98787.97;6213847;22;20045;-78
2023/04/23 00:03:42;;;;;;;0.00;0.00;;;;;;;9.44;100.00;98788.00;6267821;22;20004;-79
2023/04/23 00:06:14;;;;;;;0.00;0.00;;;;;;;9.45;100.00;98797.81;6262948;22;20620;-79
2023/04/23 00:08:40;;;;;;;0.05;0.05;;;;;;;9.46;100.00;98799.44;6214060;23;20011;-79
2023/04/23 00:11:06;;;;;;;0.00;0.00;;;;;;;9.41;100.00;98794.06;6236934;23;20007;-79
2023/04/23 00:13:32;;;;;;;0.00;0.00;;;;;;;9.44;100.00;98801.66;6180610;23;20027;-77
2023/04/23 00:16:03;;;;;;;0.00;0.00;;;;;;;9.47;100.00;98816.63;6211809;22;20401;-78
2023/04/23 00:18:56;;;;;;;;;;;;;;;;;;;;;
2023/04/23 00:21:31;;;;;;;0.00;0.00;;;;;;;9.30;100.00;98779.81;6239169;23;20509;-79
2023/04/23 00:23:56;;;;;;;0.00;0.00;;;;;;;9.24;100.00;98779.06;6236688;22;20106;-79
2023/04/23 00:26:22;;;;;;;0.00;0.00;;;;;;;9.25;100.00;98786.13;6240545;23;20357;-80
2023/04/23 00:28:47;;;;;;;0.00;0.00;;;;;;;9.25;100.00;98783.41;6233441;23;20004;-79
2023/04/23 00:31:13;;;;;;;0.00;0.00;;;;;;;9.43;100.00;98808.22;6240536;22;20069;-80
2023/04/23 00:33:38;;;;;;;0.00;0.00;;;;;;;9.24;100.00;98783.69;6209606;23;20142;-78
2023/04/23 00:36:04;;;;;;;0.00;0.00;;;;;;;9.34;100.00;98799.09;6212502;23;20031;-78
2023/04/23 00:38:30;;;;;;;0.00;0.00;;;;;;;9.26;100.00;98787.75;6214607;23;20008;-80
2023/04/23 00:40:55;;;;;;;0.00;0.00;;;;;;;9.35;100.00;98800.72;6236467;23;20012;-78
2023/04/23 00:43:23;;;;;;;0.00;0.00;;;;;;;9.22;100.00;98786.72;6238905;23;20073;-78
2023/04/23 00:45:48;;;;;;;0.00;0.00;;;;;;;9.33;100.00;98814.66;6237056;22;20012;-78
2023/04/23 00:48:15;;;;;;;0.00;0.00;;;;;;;9.25;100.00;98809.88;6239678;23;20016;-78
2023/04/23 00:50:44;;;;;;;0.00;0.00;;;;;;;9.18;100.00;98802.06;6233677;23;20012;-78
2023/04/23 00:53:09;;;;;;;0.00;0.00;;;;;;;9.25;100.00;98807.94;6214831;23;20741;-79
2023/04/23 00:55:35;;;;;;;0.00;0.00;;;;;;;9.14;100.00;98781.97;6235181;23;20308;-78
2023/04/23 00:58:00;;;;;;;0.00;0.00;;;;;;;9.12;100.00;98777.91;6238198;23;20016;-79
2023/04/23 01:00:29;;;;;;;0.00;0.00;;;;;;;9.06;100.00;98772.50;6189206;23;20069;-80
2023/04/23 01:02:54;;;;;;;0.00;0.00;;;;;;;9.21;100.00;98776.09;6212343;23;20086;-79
2023/04/23 01:05:22;;;;;;;0.00;0.00;;;;;;;9.18;100.00;98774.78;6217543;23;20008;-80
2023/04/23 01:07:48;;;;;;;0.00;0.00;;;;;;;9.30;100.00;98784.44;6210248;23;20015;-82
2023/04/23 01:10:16;;;;;;;0.00;0.00;;;;;;;9.17;100.00;98767.72;6216185;23;20488;-79
2023/04/23 01:12:41;;;;;;;0.00;0.00;;;;;;;9.20;100.00;98775.31;6237941;23;19996;-80
2023/04/23 01:15:08;;;;;;;0.00;0.00;;;;;;;9.31;100.00;98792.31;6235517;23;20011;-79
2023/04/23 01:17:33;;;;;;;0.00;0.00;;;;;;;9.12;100.00;98765.06;6216477;23;20020;-78
2023/04/23 01:20:09;;;;;;;0.00;0.00;;;;;;;9.21;100.00;98778.84;6185647;23;20014;-79
2023/04/23 01:22:38;;;;;;;0.00;0.00;;;;;;;9.25;100.00;98786.13;6239531;23;20008;-78
2023/04/23 01:25:04;;;;;;;0.00;0.00;;;;;;;9.20;100.00;98783.50;6210464;23;20008;-78
2023/04/23 01:27:31;;;;;;;0.00;0.00;;;;;;;9.18;100.00;98772.06;6215346;23;20016;-80
2023/04/23 01:29:57;;;;;;;0.00;0.00;;;;;;;9.22;100.00;98781.25;6240166;23;20004;-80
2023/04/23 01:32:23;;;;;;;0.00;0.00;;;;;;;9.29;100.00;98796.44;6233252;23;20010;-79
2023/04/23 01:34:52;;;;;;;0.00;0.00;;;;;;;9.20;100.00;98783.50;6239029;22;20016;-79
2023/04/23 01:37:18;;;;;;;0.00;0.00;;;;;;;9.16;100.00;98770.75;6232875;23;20004;-77
2023/04/23 01:39:44;;;;;;;0.00;0.00;;;;;;;9.04;100.00;98758.38;6236965;23;20481;-78
2023/04/23 01:42:10;;;;;;;0.00;0.00;;;;;;;9.21;100.00;98790.56;6211364;23;20086;-78
2023/04/23 01:44:35;;;;;;;0.00;0.00;;;;;;;9.19;100.00;98781.06;6237320;23;20008;-78
2023/04/23 01:47:01;;;;;;;0.00;0.00;;;;;;;9.16;100.00;98771.56;6211280;23;20019;-76
2023/04/23 01:49:26;;;;;;;0.00;0.00;;;;;;;9.13;100.00;98769.41;6213114;23;20012;-79
2023/04/23 01:51:52;;;;;;;0.00;0.00;;;;;;;9.18;100.00;98776.72;6215852;23;20488;-78
2023/04/23 01:54:19;;;;;;;0.00;0.00;;;;;;;9.20;100.00;98793.56;6211526;23;20537;-78
2023/04/23 01:56:45;;;;;;;0.00;0.00;;;;;;;9.13;100.00;98788.50;6239510;23;20051;-79
2023/04/23 01:59:10;;;;;;;0.00;0.00;;;;;;;9.14;100.00;98792.88;6209796;23;20011;-77
2023/04/23 02:01:43;;;;;;;0.00;0.00;;;;;;;9.19;100.00;98803.69;6189176;23;20008;-77
2023/04/23 02:04:10;;;;;;;0.00;0.00;;;;;;;9.16;100.00;98814.38;6208769;23;20004;-76
2023/04/23 02:06:36;;;;;;;0.00;0.00;;;;;;;8.99;100.00;98793.09;6239883;23;20061;-77
2023/04/23 02:09:01;;;;;;;0.10;0.10;;;;;;;9.11;100.00;98809.78;6187733;23;20007;-77
2023/04/23 02:11:26;;;;;;;0.00;0.00;;;;;;;9.03;100.00;98785.94;6233738;23;20028;-78
2023/04/23 02:13:52;;;;;;;0.00;0.00;;;;;;;9.03;100.00;98794.13;6187677;23;20008;-77
2023/04/23 02:16:18;;;;;;;0.00;0.00;;;;;;;9.03;100.00;98785.94;6214993;23;20423;-77
2023/04/23 02:19:14;;;;;;;0.00;0.00;;;;;;;9.15;100.00;98808.09;6210517;23;20031;-77
2023/04/23 02:21:55;;;;;;;;;;;;;;;;;;;;;
2023/04/23 02:25:20;;;;;;;;;;;;;;;;;;;;;
2023/04/23 02:27:47;;;;;;;0.00;0.00;;;;;;;8.95;100.00;98789.31;6241255;22;20107;-76
2023/04/23 02:30:21;;;;;;;0.00;0.00;;;;;;;8.84;100.00;98780.50;6235521;23;20008;-76
2023/04/23 02:33:09;;;;;;;0.00;0.00;;;;;;;8.98;100.00;98813.25;6242646;23;20061;-77
2023/04/23 02:35:47;;;;;;;;;;;;;;;;;;;;;
2023/04/23 02:38:13;;;;;;;0.00;0.00;;;;;;;8.81;100.00;98795.50;6250887;22;20031;-79
2023/04/23 02:40:42;;;;;;;0.00;0.00;;;;;;;8.74;100.00;98797.78;6213489;23;20046;-82
2023/04/23 02:43:08;;;;;;;0.00;0.00;;;;;;;8.64;100.00;98803.38;6241910;22;20248;-81
2023/04/23 02:45:33;;;;;;;0.00;0.00;;;;;;;8.48;100.00;98781.78;6210569;23;20015;-81
2023/04/23 02:47:58;;;;;;;0.00;0.00;;;;;;;8.46;100.00;98805.78;6213629;23;20845;-81
2023/04/23 02:50:24;;;;;;;0.00;0.00;;;;;;;8.41;100.00;98794.94;6238218;23;20004;-82
2023/04/23 02:52:49;;;;;;;0.00;0.00;;;;;;;8.35;100.00;98799.63;6208791;23;20011;-81
2023/04/23 02:55:15;;;;;;;0.00;0.00;;;;;;;8.51;100.00;98826.69;6212106;23;20011;-82
2023/04/23 02:57:41;;;;;;;0.00;0.00;;;;;;;8.41;100.00;98814.00;6184386;23;20020;-81
2023/04/23 03:00:15;;;;;;;0.00;0.00;;;;;;;8.44;100.00;98824.34;6212799;23;20012;-79
2023/04/23 03:02:43;;;;;;;0.00;0.00;;;;;;;8.31;100.00;98814.09;6235238;23;20050;-79
2023/04/23 03:05:09;;;;;;;0.00;0.00;;;;;;;8.28;100.00;98796.44;6237990;23;20038;-80
2023/04/23 03:07:36;;;;;;;0.00;0.00;;;;;;;8.44;100.00;98820.75;6189847;23;20012;-78
2023/04/23 03:10:01;;;;;;;0.00;0.00;;;;;;;8.44;100.00;98816.16;6243421;23;20079;-81
2023/04/23 03:12:26;;;;;;;0.00;0.00;;;;;;;8.43;100.00;98816.44;6211879;23;20081;-82
2023/04/23 03:14:52;;;;;;;0.00;0.00;;;;;;;8.43;100.00;98824.59;6184745;23;20011;-82
2023/04/23 03:17:17;;;;;;;0.00;0.00;;;;;;;8.39;100.00;98813.47;6213894;22;20024;-80
2023/04/23 03:19:43;;;;;;;0.00;0.00;;;;;;;8.30;100.00;98807.84;6189121;23;20085;-81
2023/04/23 03:22:11;;;;;;;0.00;0.00;;;;;;;8.31;100.00;98812.19;6235403;23;20008;-81
2023/04/23 03:24:36;;;;;;;0.00;0.00;;;;;;;8.26;100.00;98789.66;6214181;23;20682;-75
2023/04/23 03:27:02;;;;;;;0.00;0.00;;;;;;;8.34;100.00;98808.09;6208645;23;20012;-77
2023/04/23 03:29:27;;;;;;;0.00;0.00;;;;;;;8.32;100.00;98804.84;6189202;23;20438;-76
2023/04/23 03:31:53;;;;;;;0.00;0.00;;;;;;;8.30;100.00;98798.88;6235007;23;20011;-75
2023/04/23 03:34:18;;;;;;;0.00;0.00;;;;;;;8.41;100.00;98807.72;6214593;23;20008;-75
2023/04/23 03:36:45;;;;;;;0.00;0.00;;;;;;;8.46;100.00;98819.41;6212882;23;20008;-75
2023/04/23 03:39:10;;;;;;;0.00;0.00;;;;;;;8.44;100.00;98812.59;6186289;23;20088;-76
2023/04/23 03:41:36;;;;;;;0.00;0.00;;;;;;;8.44;100.00;98810.72;6189671;23;20087;-75
2023/04/23 03:44:01;;;;;;;0.00;0.00;;;;;;;8.53;100.00;98825.31;6208297;23;20008;-75
2023/04/23 03:46:29;;;;;;;0.00;0.00;;;;;;;8.49;100.00;98818.81;6188509;23;20011;-75
2023/04/23 03:48:54;;;;;;;0.00;0.00;;;;;;;8.50;100.00;98815.00;6208543;23;20004;-76
2023/04/23 03:51:20;;;;;;;0.00;0.00;;;;;;;8.48;100.00;98825.34;6188894;23;20058;-74
2023/04/23 03:53:48;;;;;;;0.00;0.00;;;;;;;8.44;100.00;98818.91;6211933;23;20015;-76
2023/04/23 03:56:13;;;;;;;0.00;0.00;;;;;;;8.48;100.00;98821.84;6186884;23;20452;-75
2023/04/23 03:58:38;;;;;;;0.00;0.00;;;;;;;8.50;100.00;98825.91;6215770;23;20012;-76
2023/04/23 04:01:04;;;;;;;0.00;0.00;;;;;;;8.55;100.00;98825.03;6183643;23;20484;-76
2023/04/23 04:03:35;;;;;;;0.00;0.00;;;;;;;8.40;100.00;98804.19;6186888;23;20027;-75
2023/04/23 04:06:00;;;;;;;0.00;0.00;;;;;;;8.43;100.00;98809.06;6211061;23;20026;-75
2023/04/23 04:08:28;;;;;;;0.00;0.00;;;;;;;8.55;100.00;98828.53;6239614;23;20442;-76
2023/04/23 04:10:54;;;;;;;0.00;0.00;;;;;;;8.56;100.00;98824.72;6207964;23;20014;-75
2023/04/23 04:13:19;;;;;;;0.00;0.00;;;;;;;8.54;100.00;98832.38;6208815;23;20898;-75
2023/04/23 04:15:47;;;;;;;0.00;0.00;;;;;;;8.47;100.00;98826.47;6232860;23;20031;-76
2023/04/23 04:18:15;;;;;;;0.00;0.00;;;;;;;8.38;100.00;98818.13;6208671;23;20893;-75
2023/04/23 04:20:43;;;;;;;0.00;0.00;;;;;;;8.48;100.00;98830.00;6236468;23;20011;-76
2023/04/23 04:23:08;;;;;;;0.00;0.00;;;;;;;8.49;100.00;98827.00;6188893;23;20008;-77
2023/04/23 04:25:38;;;;;;;0.00;0.00;;;;;;;8.26;100.00;98792.38;6236672;23;20015;-77
2023/04/23 04:28:08;;;;;;;0.00;0.00;;;;;;;8.26;100.00;98798.63;6234387;23;20015;-76
2023/04/23 04:30:34;;;;;;;0.00;0.00;;;;;;;8.31;100.00;98805.94;6239490;23;20004;-76
2023/04/23 04:33:00;;;;;;;0.00;0.00;;;;;;;8.40;100.00;98828.72;6205917;23;20010;-76
2023/04/23 04:35:25;;;;;;;0.00;0.00;;;;;;;8.35;100.00;98812.41;6241701;22;20004;-76
2023/04/23 04:37:53;;;;;;;0.00;0.00;;;;;;;8.21;100.00;98796.78;6232124;23;20066;-77
2023/04/23 04:40:19;;;;;;;0.00;0.00;;;;;;;8.33;100.00;98820.88;6189286;23;20454;-77
2023/04/23 04:42:45;;;;;;;0.00;0.00;;;;;;;8.30;100.00;98823.38;6187806;23;20012;-76
2023/04/23 04:45:11;;;;;;;0.00;0.00;;;;;;;8.34;100.00;98825.22;6235141;22;20088;-76
2023/04/23 04:47:36;;;;;;;0.00;0.00;;;;;;;8.21;100.00;98807.69;6236111;23;20395;-76
2023/04/23 04:50:05;;;;;;;0.10;0.10;;;;;;;8.12;100.00;98787.63;6210013;23;20012;-75
2023/04/23 04:52:38;;;;;;;0.00;0.00;;;;;;;8.19;100.00;98804.44;6213485;23;20392;-77
2023/04/23 04:55:10;;;;;;;0.00;0.00;;;;;;;8.21;100.00;98802.22;6206781;23;20012;-77
2023/04/23 04:57:36;;;;;;;0.00;0.00;;;;;;;8.16;100.00;98788.69;6234984;23;20395;-75
2023/04/23 05:00:22;;;;;;;0.00;0.00;;;;;;;8.18;100.00;98797.38;6185730;23;20015;-77
2023/04/23 05:02:49;;;;;;;0.00;0.00;;;;;;;8.09;100.00;98788.22;6237402;23;20000;-77
2023/04/23 05:05:17;;;;;;;0.00;0.00;;;;;;;8.17;100.00;98801.19;6233724;22;20426;-77
2023/04/23 05:07:43;;;;;;;0.00;0.00;;;;;;;8.12;100.00;98787.63;6213428;23;20146;-76
2023/04/23 05:10:09;;;;;;;0.00;0.00;;;;;;;8.29;100.00;98802.69;6211909;23;20095;-76
2023/04/23 05:12:35;;;;;;;0.00;0.00;;;;;;;8.35;100.00;98804.25;6236247;23;20000;-76
2023/04/23 05:15:01;;;;;;;0.00;0.00;;;;;;;8.23;100.00;98799.22;6189860;23;20023;-79
2023/04/23 05:17:27;;;;;;;0.00;0.00;;;;;;;8.25;100.00;98807.09;6204858;23;20388;-78
2023/04/23 05:19:52;;;;;;;0.00;0.00;;;;;;;8.32;100.00;98816.56;6189895;23;20078;-78
2023/04/23 05:22:18;;;;;;;0.00;0.00;;;;;;;8.39;100.00;98821.63;6207434;23;20048;-80
2023/04/23 05:24:44;;;;;;;0.00;0.00;;;;;;;8.42;100.00;98812.88;6187877;23;20636;-79
2023/04/23 05:27:12;;;;;;;0.00;0.00;;;;;;;8.41;100.00;98808.56;6185038;23;20004;-79
2023/04/23 05:29:40;;;;;;;0.00;0.00;;;;;;;8.42;100.00;98807.44;6209352;23;20445;-80
2023/04/23 05:32:08;;;;;;;0.00;0.00;;;;;;;8.36;100.00;98797.72;6239776;23;20255;-80
2023/04/23 05:34:33;;;;;;;0.00;0.00;;;;;;;8.50;100.00;98812.28;6232912;23;20011;-81
2023/04/23 05:36:59;;;;;;;0.00;0.00;;;;;;;8.51;100.00;98805.72;6212933;23;20008;-79
2023/04/23 05:39:30;;;;;;;0.00;0.00;;;;;;;8.44;100.00;98794.38;6209254;23;20011;-79
2023/04/23 05:41:58;;;;;;;0.00;0.00;;;;;;;8.43;100.00;98797.38;6238810;23;20490;-79
2023/04/23 05:44:26;;;;;;;0.00;0.00;;;;;;;8.52;100.00;98807.34;6210181;23;20034;-79
2023/04/23 05:46:54;;;;;;;0.00;0.00;;;;;;;8.37;100.00;98772.91;6211789;23;20104;-79
2023/04/23 05:49:33;;;;;;;;;;;;;;;;;;;;;
2023/04/23 05:52:08;;;;;;;0.00;0.00;;;;;;;8.63;100.00;98802.59;6239762;23;20071;-79
2023/04/23 05:54:36;;;;;;;0.00;0.00;;;;;;;8.66;100.00;98802.00;6238837;23;20004;-79
2023/04/23 05:57:12;;;;;;;;;;;;;;;;;;;;;
2023/04/23 05:59:43;;;;;;;0.00;0.00;;;;;;;8.68;100.00;98790.78;6238252;23;20083;-78
2023/04/23 06:02:11;;;;;;;0.00;0.00;;;;;;;8.66;100.00;98793.00;6238654;23;20007;-79
2023/04/23 06:04:45;;;;;;;0.00;0.00;;;;;;;8.66;100.00;98785.63;6241754;23;20003;-77
2023/04/23 06:07:11;;;;;;;;;;;;;;;8.94;100.00;98823.16;6235287;23;20426;-79
2023/04/23 06:09:40;;;;;;;0.03;0.03;;;;;;;8.78;100.00;98798.84;6242766;23;19904;-76
2023/04/23 06:12:05;;;;;;;0.00;0.00;;;;;;;8.91;100.00;98830.81;6237167;22;20003;-75
2023/04/23 06:14:31;;;;;;;0.00;0.00;;;;;;;8.90;100.00;98818.28;6216449;23;20007;-76
2023/04/23 06:16:56;;;;;;;0.00;0.00;;;;;;;8.93;100.00;98814.16;6237925;23;20008;-76
2023/04/23 06:19:29;;;;;;;0.00;0.00;;;;;;;8.82;100.00;98799.88;6237392;23;20028;-76
2023/04/23 06:21:57;;;;;;;0.00;0.00;;;;;;;8.97;100.00;98806.22;6216669;23;20086;-74
2023/04/23 06:24:23;;;;;;;0.00;0.00;;;;;;;8.96;100.00;98790.94;6233157;23;20354;-76
2023/04/23 06:26:57;;;;;;;0.00;0.00;;;;;;;9.08;100.00;98791.31;6213793;23;20008;-76
2023/04/23 06:29:30;;;;;;;0.00;0.00;;;;;;;9.29;100.00;98812.81;6231644;23;20715;-75
2023/04/23 06:31:56;;;;;;;0.00;0.00;;;;;;;9.40;100.00;98819.72;6216826;23;20087;-76
2023/04/23 06:34:33;;;;;;;0.00;0.00;;;;;;;9.41;100.00;98813.16;6233063;23;20011;-77
2023/04/23 06:36:59;;;;;;;0.00;0.00;;;;;;;9.56;100.00;98826.56;6216788;23;20089;-76
2023/04/23 06:39:27;;;;;;;0.00;0.00;;;;;;;9.37;100.00;98790.31;6232453;23;20095;-76
2023/04/23 06:41:59;;;;;;;0.00;0.00;;;;;;;9.50;99.67;98813.31;6212844;23;20012;-77
2023/04/23 06:44:25;;;;;;;0.00;0.00;;;;;;;9.44;99.71;98793.47;6234846;23;20138;-77
2023/04/23 06:46:52;;;;;;;0.00;0.00;;;;;;;9.53;98.76;98808.03;6238300;23;20036;-76
2023/04/23 06:49:18;;;;;;;0.00;0.00;;;;;;;9.45;98.34;98784.19;6212566;23;20015;-75
2023/04/23 06:51:43;;;;;;;0.00;0.00;;;;;;;9.76;97.86;98827.31;6211019;23;20008;-77
2023/04/23 06:54:09;;;;;;;0.00;0.00;;;;;;;9.63;97.55;98796.16;6188169;23;20087;-76
2023/04/23 06:56:56;;;;;;;0.00;0.00;;;;;;;9.38;97.27;98778.31;6234186;23;20004;-77
2023/04/23 06:59:21;;;;;;;0.00;0.00;;;;;;;9.53;97.23;98791.66;6236130;23;20046;-76
2023/04/23 07:01:47;;;;;;;0.00;0.00;;;;;;;9.57;97.11;98794.63;6236135;22;20004;-76
2023/04/23 07:04:15;;;;;;;0.00;0.00;;;;;;;9.68;96.29;98800.72;6238243;23;20004;-76
2023/04/23 07:06:40;;;;;;;0.00;0.00;;;;;;;9.83;96.78;98827.75;6237589;23;20027;-77
2023/04/23 07:09:06;;;;;;;0.00;0.00;;;;;;;9.78;95.99;98819.63;6183468;23;20430;-76
2023/04/23 07:11:33;;;;;;;0.00;0.00;;;;;;;9.82;96.28;98837.03;6213249;23;20000;-76
2023/04/23 07:13:59;;;;;;;0.00;0.00;;;;;;;9.78;95.83;98827.81;6238632;23;20012;-76
2023/04/23 07:16:24;;;;;;;0.00;0.00;;;;;;;9.85;95.90;98820.06;6192191;23;20062;-77
2023/04/23 07:18:53;;;;;;;0.00;0.00;;;;;;;9.92;95.48;98814.22;6232759;22;20382;-75
2023/04/23 07:21:26;;;;;;;0.00;0.00;;;;;;;10.03;95.38;98795.72;6241001;23;20392;-76
2023/04/23 07:23:52;;;;;;;0.00;0.00;;;;;;;10.13;94.17;98804.53;6186135;23;20436;-75
2023/04/23 07:26:38;;;;;;;0.00;0.00;;;;;;;10.53;94.02;98828.66;6238571;22;20015;-82
2023/04/23 07:29:16;;;;;;;;;;;;;;;;;;;;;
2023/04/23 07:31:44;;;;;;;0.00;0.00;;;;;;;10.90;91.77;98824.03;6232908;23;20083;-75
2023/04/23 07:34:10;;;;;;;0.00;0.00;;;;;;;11.04;91.09;98814.97;6239159;23;20066;-76
2023/04/23 07:36:38;;;;;;;0.00;0.00;;;;;;;11.50;90.42;98827.59;6179738;23;20016;-77
2023/04/23 07:39:13;;;;;;;0.00;0.00;;;;;;;11.89;88.85;98804.16;6238582;22;20012;-77
2023/04/23 07:41:39;;;;;;;0.00;0.00;;;;;;;12.21;86.64;98781.13;6236672;22;20004;-82
2023/04/23 07:44:05;;;;;;;0.00;0.00;;;;;;;12.37;82.93;98811.63;6236399;23;20078;-77
2023/04/23 07:46:31;;;;;;;0.00;0.00;;;;;;;12.31;82.24;98815.66;6235142;23;20061;-75
2023/04/23 07:49:06;;;;;;;0.00;0.00;;;;;;;12.28;82.02;98818.22;6236145;23;20073;-80
2023/04/23 07:51:35;;;;;;;0.03;0.03;;;;;;;12.55;82.39;98812.50;6239954;23;20000;-81
2023/04/23 07:54:01;;;;;;;0.00;0.00;;;;;;;12.65;81.56;98800.44;6216364;23;20018;-81
2023/04/23 07:56:26;;;;;;;0.00;0.00;;;;;;;12.97;80.62;98795.63;6236463;23;20038;-79
2023/04/23 07:58:52;;;;;;;0.00;0.00;;;;;;;13.35;78.95;98805.19;6238631;23;20007;-80
2023/04/23 08:01:18;;;;;;;0.00;0.00;;;;;;;13.75;78.20;98819.50;6237944;23;20008;-78
2023/04/23 08:03:44;;;;;;;0.00;0.00;;;;;;;14.42;76.87;98827.38;6209651;23;20008;-77
2023/04/23 08:06:13;;;;;;;0.00;0.00;;;;;;;14.92;75.39;98820.31;6237495;23;20012;-77
2023/04/23 08:08:41;;;;;;;0.00;0.00;;;;;;;15.35;74.27;98827.47;6209290;23;20110;-81
2023/04/23 08:11:07;;;;;;;0.00;0.00;;;;;;;15.67;73.41;98833.34;6212194;23;20004;-80
2023/04/23 08:13:32;;;;;;;0.00;0.00;;;;;;;15.71;73.12;98834.25;6237822;23;20000;-78
2023/04/23 08:15:58;;;;;;;0.00;0.00;;;;;;;15.63;72.23;98821.38;6237547;23;20139;-78
2023/04/23 08:18:32;;;;;;;0.00;0.00;;;;;;;15.63;72.21;98810.38;6211749;23;20028;-79
2023/04/23 08:21:00;;;;;;;;;;;;;;;15.93;71.59;98835.88;6233879;23;20031;-79
2023/04/23 08:23:26;;;;;;;0.00;0.00;;;;;;;15.66;69.25;98831.72;6215018;23;19918;-80
2023/04/23 08:26:02;;;;;;;0.00;0.00;;;;;;;15.50;67.82;98802.03;6232699;23;20083;-78
2023/04/23 08:28:45;;;;;;;0.00;0.00;;;;;;;15.67;67.13;98800.28;6213145;23;20470;-77
2023/04/23 08:32:02;;;;;;;;;;;;;;;;;;;;;
2023/04/23 08:34:33;;;;;;;0.00;0.00;;;;;;;15.99;64.41;98815.19;6222581;22;20035;-79
2023/04/23 08:37:38;;;;;;;0.00;0.00;;;;;;;15.85;65.45;98798.16;6236750;23;20030;-79
2023/04/23 08:40:41;;;;;;;;;;;;;;;;;;;;;
2023/04/23 08:43:35;;;;;;;0.00;0.00;;;;;;;16.76;63.61;98816.50;6231846;23;20004;-79
2023/04/23 08:46:14;;;;;;;0.00;0.00;;;;;;;17.25;62.97;98834.97;6233972;23;20004;-80
2023/04/23 08:49:51;;;;;;;;;;;;;;;;;;;;;
2023/04/23 08:52:33;;;;;;;0.00;0.00;;;;;;;16.84;59.90;98818.31;6137124;23;20012;-79
2023/04/23 08:55:23;;;;;;;;;;;;;;;;;;;;;
2023/04/23 08:57:50;;;;;;;0.00;0.00;;;;;;;16.49;60.30;98831.81;6141325;23;20325;-76
2023/04/23 09:00:30;;;;;;;;;;;;;;;;;;;;;
2023/04/23 09:03:28;;;;;;;;;;;;;;;;;;;;;
2023/04/23 09:33:54;;;;;;;0.00;0.00;;;;;;;20.77;49.61;98832.22;5885851;24;20549;-82
2023/04/23 09:37:05;;;;;;;0.00;0.00;;;;;;;23.05;46.12;98839.84;5920053;24;20813;-83
2023/04/23 09:40:03;;;;;;;0.00;0.00;;;;;;;23.31;43.02;98799.78;5889926;24;20017;-78
2023/04/23 09:42:40;;;;;;;0.00;0.00;;;;;;;22.76;39.13;98830.50;5888725;24;20041;-80
2023/04/23 09:48:59;;;;;;;0.00;0.00;;;;;;;20.92;41.75;98817.34;6028978;23;20010;-82
2023/04/23 09:51:38;;;;;;;0.00;0.00;;;;;;;20.01;43.55;98803.19;6229457;23;20012;-80
2023/04/23 09:58:27;;;;;;;;;;;;;;;;;;;;;
2023/04/23 10:01:38;;;;;;;;;;;;;;;;;;;;;
2023/04/23 10:04:34;;;;;;;0.00;0.00;;;;;;;16.79;46.43;98792.91;6235776;22;20079;-79
2023/04/23 10:07:44;;;;;;;0.00;0.00;;;;;;;16.55;48.93;98817.41;6236988;22;20004;-77
2023/04/23 10:18:16;;;;;;;;;;;;;;;;;;;;;
2023/04/23 10:24:23;;;;;;;0.00;0.00;;;;;;;20.54;46.56;98774.69;6122751;22;20019;-78
2023/04/23 10:27:51;;;;;;;;;;;;;;;;;;;;;
2023/04/23 10:31:09;;;;;;;;;;;;;;;;;;;;;
2023/04/23 10:44:38;;;;;;;0.00;0.00;;;;;;;37.93;19.47;98782.97;5938880;24;20027;-78
2023/04/23 10:47:21;;;;;;;0.00;0.00;;;;;;;40.68;16.82;98779.03;5983504;23;20339;-78
2023/04/23 10:49:47;;;;;;;0.00;0.00;;;;;;;44.01;15.72;98790.28;6165168;23;20079;-78
2023/04/23 10:52:17;;;;;;;0.00;0.00;;;;;;;46.22;14.74;98772.78;6209245;23;20024;-79
2023/04/23 10:54:50;;;;;;;0.00;0.00;;;;;;;47.20;12.71;98789.13;6225596;22;20101;-79
2023/04/23 10:57:18;;;;;;;0.00;0.00;;;;;;;47.84;10.86;98789.19;6272971;22;19996;-78
2023/04/23 10:59:57;;;;;;;0.00;0.00;;;;;;;47.15;10.49;98789.25;6243288;22;20042;-77
2023/04/23 11:02:24;;;;;;;0.00;0.00;;;;;;;41.56;11.80;98786.03;6244019;22;20069;-78
2023/04/23 11:05:05;;;;;;;0.00;0.00;;;;;;;35.09;15.46;98763.84;6219080;22;20019;-78
2023/04/23 11:07:32;;;;;;;0.00;0.00;;;;;;;30.37;19.05;98752.63;6218751;22;20042;-79
2023/04/23 11:10:15;;;;;;;0.00;0.00;;;;;;;27.17;22.85;98740.47;6244784;22;20062;-78
2023/04/23 11:12:43;;;;;;;0.00;0.00;;;;;;;25.40;25.11;98757.13;6243847;22;20011;-78
2023/04/23 11:15:11;;;;;;;0.00;0.00;;;;;;;25.40;25.88;98748.72;6244692;22;20000;-78
2023/04/23 11:17:36;;;;;;;0.00;0.00;;;;;;;26.48;25.74;98762.78;6268469;22;20026;-80
2023/04/23 11:20:12;;;;;;;0.00;0.00;;;;;;;28.57;24.12;98762.06;6250835;22;20027;-77
2023/04/23 11:22:53;;;;;;;0.00;0.00;;;;;;;31.37;21.22;98759.66;6293816;22;20342;-77
2023/04/23 11:25:29;;;;;;;0.00;0.00;;;;;;;32.74;20.52;98763.81;6271135;22;20056;-78
2023/04/23 11:27:57;;;;;;;0.00;0.00;;;;;;;37.98;15.42;98776.56;6269150;22;20015;-77
2023/04/23 11:30:27;;;;;;;0.00;0.00;;;;;;;38.65;13.96;98770.22;6271505;22;20011;-78
2023/04/23 11:32:59;;;;;;;0.00;0.00;;;;;;;34.64;16.34;98771.06;6268065;22;20496;-80
2023/04/23 11:35:27;;;;;;;0.00;0.00;;;;;;;31.13;18.91;98762.75;6271951;22;20014;-76
2023/04/23 11:37:55;;;;;;;0.00;0.00;;;;;;;29.41;19.72;98768.53;6292842;22;20478;-78
2023/04/23 11:40:21;;;;;;;0.00;0.00;;;;;;;26.99;22.03;98756.69;6296563;22;20007;-77
2023/04/23 11:42:53;;;;;;;0.00;0.00;;;;;;;27.68;23.43;98754.63;6267975;22;20723;-77
2023/04/23 11:45:29;;;;;;;0.00;0.00;;;;;;;32.10;20.56;98767.50;6271898;22;20003;-80
2023/04/23 11:47:58;;;;;;;0.00;0.00;;;;;;;37.16;16.97;98779.00;6276412;22;20015;-81
2023/04/23 11:50:26;;;;;;;0.00;0.00;;;;;;;41.24;14.91;98763.28;6249977;22;20019;-81
2023/04/23 11:52:53;;;;;;;0.00;0.00;;;;;;;43.98;11.97;98774.84;6248016;22;20008;-82
2023/04/23 11:55:20;;;;;;;0.00;0.00;;;;;;;44.91;10.14;98794.25;6274247;22;20325;-82
2023/04/23 11:57:48;;;;;;;0.00;0.00;;;;;;;44.30;9.55;98785.03;6272401;22;20000;-82
2023/04/23 12:00:19;;;;;;;0.00;0.00;;;;;;;44.42;10.52;98790.13;6277070;22;20023;-83
2023/04/23 12:02:57;;;;;;;0.00;0.00;;;;;;;41.89;11.18;98790.25;6305093;22;20083;-83
2023/04/23 12:05:41;;;;;;;0.00;0.00;;;;;;;38.38;13.03;98789.34;6274522;22;20000;-82
2023/04/23 12:08:16;;;;;;;;;;;;;;;34.38;14.97;98782.72;6274781;22;20003;-83
2023/04/23 12:10:47;;;;;;;0.00;0.00;;;;;;;31.57;17.59;98778.47;6271459;22;19930;-82
2023/04/23 12:13:17;;;;;;;0.00;0.00;;;;;;;29.40;19.46;98783.84;6273515;22;20604;-82
2023/04/23 12:16:00;;;;;;;0.00;0.00;;;;;;;27.36;20.98;98765.50;6295982;22;20035;-82
2023/04/23 12:18:36;;;;;;;0.00;0.00;;;;;;;31.90;20.32;98772.63;6296420;22;20034;-83
2023/04/23 12:21:12;;;;;;;0.00;0.00;;;;;;;35.89;15.64;98763.84;6268901;22;20015;-81
2023/04/23 12:23:44;;;;;;;0.00;0.00;;;;;;;32.71;16.69;98771.19;6273516;22;20000;-80
2023/04/23 12:26:15;;;;;;;0.00;0.00;;;;;;;28.73;19.79;98753.75;6273582;22;20019;-80
2023/04/23 12:28:49;;;;;;;0.00;0.00;;;;;;;26.22;23.57;98769.81;6300785;22;20063;-81
2023/04/23 12:31:28;;;;;;;0.00;0.00;;;;;;;24.11;26.21;98758.94;6273297;22;20004;-80
2023/04/23 12:34:00;;;;;;;0.00;0.00;;;;;;;23.43;27.68;98767.94;6272205;22;20035;-81
2023/04/23 12:36:29;;;;;;;0.00;0.00;;;;;;;27.16;25.34;98768.91;6301000;22;20000;-84
2023/04/23 12:39:20;;;;;;;0.00;0.00;;;;;;;34.44;18.86;98770.25;6275385;22;19999;-81
2023/04/23 12:41:46;;;;;;;0.00;0.00;;;;;;;40.01;14.87;98779.38;6299506;22;20042;-81
2023/04/23 12:44:16;;;;;;;0.00;0.00;;;;;;;40.84;12.21;98774.66;6270871;22;19999;-81
2023/04/23 12:46:59;;;;;;;0.00;0.00;;;;;;;36.28;13.59;98756.25;6271512;22;20540;-80
2023/04/23 12:49:40;;;;;;;0.00;0.00;;;;;;;30.55;16.35;98760.69;6272238;22;20004;-80
2023/04/23 12:52:11;;;;;;;0.00;0.00;;;;;;;26.15;20.63;98769.09;6273863;22;20077;-79
2023/04/23 12:54:43;;;;;;;0.00;0.00;;;;;;;22.90;24.43;98751.78;6247546;22;20003;-82
2023/04/23 12:57:23;;;;;;;0.00;0.00;;;;;;;21.26;27.98;98764.59;6272707;22;20014;-81
2023/04/23 12:59:48;;;;;;;0.00;0.00;;;;;;;19.98;30.53;98738.13;6273977;22;20716;-81
2023/04/23 13:02:14;;;;;;;0.00;0.00;;;;;;;19.61;31.47;98732.28;6272437;22;20407;-85
2023/04/23 13:04:47;;;;;;;0.00;0.00;;;;;;;19.30;32.12;98753.47;6273106;22;20008;-82
2023/04/23 13:07:17;;;;;;;0.00;0.00;;;;;;;18.64;32.81;98759.59;6273057;22;20140;-81
2023/04/23 13:09:43;;;;;;;0.00;0.00;;;;;;;18.03;34.24;98754.56;6273731;22;20422;-81
2023/04/23 13:12:13;;;;;;;0.00;0.00;;;;;;;17.54;35.49;98739.88;6271703;22;20012;-80
2023/04/23 13:14:48;;;;;;;0.00;0.00;;;;;;;17.32;36.89;98741.25;6274621;22;20000;-80